createdAt,value
2019-03-25T08:42:56.218Z,1015.2
2019-03-25T08:43:57.667Z,1014.9
2019-03-25T08:44:59.278Z,1014.9
2019-03-25T08:46:00.672Z,1014.8
2019-03-25T08:47:02.158Z,1014.8
2019-03-25T08:48:03.661Z,1014.8
2019-03-25T08:49:05.558Z,1014.8
2019-03-25T08:50:07.161Z,1014.8
2019-03-25T08:51:09.105Z,1015.3
2019-03-25T08:52:10.804Z,1015.9
2019-03-25T08:53:12.272Z,1015.8
2019-03-25T08:54:13.894Z,1018.1
2019-03-25T08:55:15.527Z,1017.8
2019-03-25T08:56:17.226Z,1017.7
2019-03-25T08:57:19.141Z,1017.7
2019-03-25T08:58:20.927Z,1017.6
2019-03-25T08:59:22.682Z,1017.7
2019-03-25T09:00:24.226Z,1017.1
2019-03-25T09:01:25.953Z,1016.9
2019-03-25T09:02:27.803Z,1017.1
2019-03-25T09:03:29.422Z,1018.5
2019-03-25T09:04:31.258Z,1018.5
2019-03-25T09:05:33.224Z,1018.7
2019-03-25T09:06:34.914Z,1018.7
2019-03-25T09:07:36.753Z,1018.9
2019-03-25T09:08:38.560Z,1017.3
2019-03-25T09:09:40.243Z,1016.1
2019-03-25T09:10:41.940Z,1016.1
2019-03-25T09:11:43.522Z,1017.0
2019-03-25T09:12:45.225Z,1016.8
2019-03-25T09:13:46.930Z,1016.6
2019-03-25T09:14:48.648Z,1015.6
2019-03-25T09:15:50.213Z,1017.4
2019-03-25T09:16:52.035Z,1015.3
2019-03-25T09:17:53.729Z,1015.3
2019-03-25T09:18:55.661Z,1017.0
2019-03-25T09:19:57.476Z,1015.8
2019-03-25T09:20:59.044Z,1016.3
2019-03-25T09:22:00.599Z,1015.2
2019-03-25T09:23:02.419Z,1018.2
2019-03-25T09:24:04.094Z,1015.7
2019-03-25T09:25:05.855Z,1015.9
2019-03-25T09:26:07.497Z,1016.3
2019-03-25T09:27:09.059Z,1016.3
2019-03-25T09:28:10.710Z,1015.1
2019-03-25T09:29:12.454Z,1015.0
2019-03-25T09:30:14.030Z,1015.6
2019-03-25T09:31:15.851Z,1015.3
2019-03-25T09:32:17.458Z,1014.5
2019-03-25T09:33:19.172Z,1014.4
2019-03-25T09:34:21.172Z,1014.4
2019-03-25T09:35:22.807Z,1014.4
2019-03-25T09:36:24.460Z,1014.4
2019-03-25T09:37:26.344Z,1014.6
2019-03-25T09:38:27.992Z,1014.6
2019-03-25T09:39:29.692Z,1014.6
2019-03-25T09:40:31.474Z,1014.6
2019-03-25T09:41:33.398Z,1014.5
2019-03-25T09:42:35.080Z,1014.8
2019-03-25T09:43:36.789Z,1014.5
2019-03-25T09:44:38.313Z,1014.4
2019-03-25T09:45:39.897Z,1014.5
2019-03-25T09:46:41.665Z,1014.6
2019-03-25T09:47:43.223Z,1014.7
2019-03-25T09:48:44.945Z,1015.2
2019-03-25T09:49:46.497Z,1015.4
2019-03-25T09:50:48.056Z,1015.4
2019-03-25T09:51:49.736Z,1014.8
2019-03-25T09:52:51.289Z,1015.2
2019-03-25T09:53:52.836Z,1015.0
2019-03-25T09:54:54.742Z,1015.5
2019-03-25T09:55:56.686Z,1015.7
2019-03-25T09:56:58.206Z,1015.6
2019-03-25T09:58:00.040Z,1015.9
2019-03-25T09:59:01.726Z,1014.8
2019-03-25T10:00:03.376Z,1015.2
2019-03-25T10:01:05.226Z,1015.5
2019-03-25T10:02:06.877Z,1015.3
2019-03-25T10:03:08.435Z,1015.6
2019-03-25T10:04:10.258Z,1015.4
2019-03-25T10:05:12.080Z,1015.9
2019-03-25T10:06:13.801Z,1016.4
2019-03-25T10:07:15.405Z,1016.4
2019-03-25T10:08:17.035Z,1017.2
2019-03-25T10:09:18.684Z,1017.3
2019-03-25T10:10:20.257Z,1019.1
2019-03-25T10:11:21.901Z,1018.2
2019-03-25T10:12:23.447Z,1019.1
2019-03-25T10:13:25.189Z,1019.9
2019-03-25T10:14:26.828Z,1019.5
2019-03-25T10:15:28.564Z,1019.5
2019-03-25T10:16:30.154Z,1017.7
2019-03-25T10:17:32.031Z,1018.5
2019-03-25T10:18:33.674Z,1015.5
2019-03-25T10:19:35.444Z,1017.1
2019-03-25T10:20:37.017Z,1017.3
2019-03-25T10:21:38.650Z,1019.1
2019-03-25T10:22:40.263Z,1016.8
2019-03-25T10:23:41.818Z,1015.3
2019-03-25T10:24:43.362Z,1015.6
2019-03-25T10:25:44.998Z,1015.1
2019-03-25T10:26:46.562Z,1015.5
2019-03-25T10:27:48.266Z,1015.7
2019-03-25T10:28:49.842Z,1017.1
2019-03-25T10:29:51.659Z,1017.3
2019-03-25T10:30:53.220Z,1016.4
2019-03-25T10:31:54.705Z,1016.1
2019-03-25T10:32:56.295Z,1016.2
2019-03-25T10:33:57.927Z,1016.3
2019-03-25T10:34:59.390Z,1016.8
2019-03-25T10:36:00.892Z,1016.6
2019-03-25T10:37:02.507Z,1016.2
2019-03-25T10:38:04.025Z,1016.6
2019-03-25T10:39:05.793Z,1016.3
2019-03-25T10:40:07.271Z,1016.3
2019-03-25T10:41:08.965Z,1015.6
2019-03-25T10:42:10.785Z,1016.5
2019-03-25T10:43:12.415Z,1016.3
2019-03-25T10:44:14.054Z,1016.3
2019-03-25T10:45:15.703Z,1016.2
2019-03-25T10:46:17.539Z,1016.0
2019-03-25T10:47:19.154Z,1016.2
2019-03-25T10:48:20.808Z,1015.7
2019-03-25T10:49:23.551Z,1016.5
2019-03-25T10:50:25.110Z,1016.4
2019-03-25T10:51:26.629Z,1016.2
2019-03-25T10:52:28.346Z,1016.2
2019-03-25T10:53:30.004Z,1016.0
2019-03-25T10:54:31.602Z,1015.8
2019-03-25T10:55:33.064Z,1016.3
2019-03-25T10:56:34.634Z,1015.5
2019-03-25T10:57:36.227Z,1016.2
2019-03-25T10:58:37.899Z,1015.5
2019-03-25T10:59:39.409Z,1016.6
2019-03-25T11:00:40.896Z,1016.0
2019-03-25T11:01:42.663Z,1015.7
2019-03-25T11:02:44.267Z,1015.3
2019-03-25T11:03:45.822Z,1015.2
2019-03-25T11:04:47.357Z,1015.2
2019-03-25T11:05:48.915Z,1015.2
2019-03-25T11:06:50.551Z,1015.3
2019-03-25T11:07:52.292Z,1015.4
2019-03-25T11:08:53.917Z,1015.6
2019-03-25T11:09:55.376Z,1015.7
2019-03-25T11:10:56.931Z,1015.6
2019-03-25T11:11:58.462Z,1015.6
2019-03-25T11:12:59.996Z,1015.6
2019-03-25T11:14:01.685Z,1015.6
2019-03-25T11:15:03.088Z,1015.4
2019-03-25T11:16:04.864Z,1015.3
2019-03-25T11:17:06.241Z,1015.3
2019-03-25T11:18:07.654Z,1015.3
2019-03-25T11:19:09.157Z,1015.5
2019-03-25T11:20:10.633Z,1015.5
2019-03-25T11:21:12.239Z,1015.5
2019-03-25T11:22:13.729Z,1015.4
2019-03-25T11:23:15.267Z,1015.6
2019-03-25T11:24:16.720Z,1015.5
2019-03-25T11:25:18.393Z,1015.5
2019-03-25T11:26:19.970Z,1015.4
2019-03-25T11:27:21.560Z,1015.5
2019-03-25T11:28:23.138Z,1015.5
2019-03-25T11:29:24.833Z,1015.5
2019-03-25T11:30:26.484Z,1015.6
2019-03-25T11:31:28.091Z,1015.6
2019-03-25T11:32:29.769Z,1015.7
2019-03-25T11:33:31.419Z,1015.6
2019-03-25T11:34:33.103Z,1015.7
2019-03-25T11:35:34.709Z,1015.6
2019-03-25T11:36:36.100Z,1015.7
2019-03-25T11:37:37.670Z,1015.8
2019-03-25T11:38:39.216Z,1015.8
2019-03-25T11:39:40.950Z,1015.8
2019-03-25T11:40:42.711Z,1015.6
2019-03-25T11:41:44.159Z,1015.5
2019-03-25T11:42:45.817Z,1015.6
2019-03-25T11:43:47.220Z,1015.6
2019-03-25T11:44:48.901Z,1015.6
2019-03-25T11:45:50.441Z,1015.6
2019-03-25T11:46:51.988Z,1015.5
2019-03-25T11:47:53.618Z,1015.5
2019-03-25T11:48:55.071Z,1015.6
2019-03-25T11:49:56.711Z,1015.6
2019-03-25T11:50:58.182Z,1015.7
2019-03-25T11:51:59.636Z,1015.8
2019-03-25T11:53:01.397Z,1015.7
2019-03-25T11:54:02.827Z,1015.8
2019-03-25T11:55:05.360Z,1015.9
2019-03-25T11:56:07.018Z,1015.8
2019-03-25T11:57:08.600Z,1015.8
2019-03-25T11:58:10.024Z,1015.8
2019-03-25T11:59:18.333Z,1015.6
2019-03-25T12:00:13.119Z,1015.6
2019-03-25T12:01:14.669Z,1015.5
2019-03-25T12:02:17.726Z,1015.6
2019-03-25T12:03:17.587Z,1015.7
2019-03-25T12:04:19.159Z,1015.7
2019-03-25T12:05:20.578Z,1015.7
2019-03-25T12:06:22.191Z,1015.6
2019-03-25T12:07:23.598Z,1015.5
2019-03-25T12:08:25.009Z,1015.7
2019-03-25T12:09:26.520Z,1015.5
2019-03-25T12:10:27.961Z,1015.5
2019-03-25T12:11:29.583Z,1015.5
2019-03-25T12:12:31.001Z,1015.5
2019-03-25T12:13:32.455Z,1015.3
2019-03-25T12:14:33.996Z,1015.3
2019-03-25T12:15:35.663Z,1015.4
2019-03-25T12:16:37.078Z,1015.5
2019-03-25T12:17:38.487Z,1015.3
2019-03-25T12:18:40.112Z,1015.3
2019-03-25T12:19:41.519Z,1015.4
2019-03-25T12:20:43.057Z,1015.3
2019-03-25T12:21:44.756Z,1015.5
2019-03-25T12:22:46.250Z,1015.6
2019-03-25T12:23:47.838Z,1015.6
2019-03-25T12:24:49.573Z,1015.8
2019-03-25T12:25:51.001Z,1015.7
2019-03-25T12:26:52.410Z,1015.7
2019-03-25T12:27:53.855Z,1015.8
2019-03-25T12:28:55.269Z,1015.8
2019-03-25T12:29:56.746Z,1015.6
2019-03-25T12:30:58.158Z,1015.5
2019-03-25T12:31:59.618Z,1015.5
2019-03-25T12:33:04.114Z,1015.4
2019-03-25T12:34:02.705Z,1015.3
2019-03-25T12:35:04.291Z,1015.4
2019-03-25T12:36:06.026Z,1015.4
2019-03-25T12:37:07.563Z,1015.4
2019-03-25T12:38:09.332Z,1015.3
2019-03-25T12:39:10.951Z,1015.3
2019-03-25T12:40:12.446Z,1015.4
2019-03-25T12:41:14.084Z,1015.6
2019-03-25T12:42:15.702Z,1015.5
2019-03-25T12:43:17.358Z,1015.6
2019-03-25T12:44:18.927Z,1015.6
2019-03-25T12:45:20.595Z,1015.6
2019-03-25T12:46:22.006Z,1015.6
2019-03-25T12:47:23.432Z,1015.4
2019-03-25T12:48:24.967Z,1015.4
2019-03-25T12:49:26.370Z,1015.5
2019-03-25T12:50:27.903Z,1015.5
2019-03-25T12:51:29.714Z,1015.6
2019-03-25T12:52:31.421Z,1015.8
2019-03-25T12:53:33.000Z,1015.7
2019-03-25T12:54:34.716Z,1015.6
2019-03-25T12:55:36.326Z,1015.6
2019-03-25T12:56:38.145Z,1015.4
2019-03-25T12:57:40.000Z,1015.5
2019-03-25T12:58:41.435Z,1015.5
2019-03-25T12:59:43.035Z,1015.3
2019-03-25T13:00:44.435Z,1015.4
2019-03-25T13:01:53.004Z,1015.6
2019-03-25T13:02:47.356Z,1015.6
2019-03-25T13:03:48.889Z,1015.6
2019-03-25T13:04:50.480Z,1015.7
2019-03-25T13:05:52.026Z,1015.7
2019-03-25T13:06:53.585Z,1015.8
2019-03-25T13:07:55.205Z,1015.8
2019-03-25T13:08:56.798Z,1015.9
2019-03-25T13:09:58.436Z,1015.7
2019-03-25T13:10:59.967Z,1015.6
2019-03-25T13:12:01.663Z,1015.6
2019-03-25T13:13:03.198Z,1015.7
2019-03-25T13:14:04.719Z,1015.7
2019-03-25T13:15:06.447Z,1015.7
2019-03-25T13:16:07.946Z,1015.7
2019-03-25T13:17:09.481Z,1015.7
2019-03-25T13:18:11.144Z,1015.7
2019-03-25T13:19:12.707Z,1015.8
2019-03-25T13:20:14.495Z,1015.6
2019-03-25T13:21:15.993Z,1015.6
2019-03-25T13:22:17.760Z,1015.6
2019-03-25T13:23:19.277Z,1015.6
2019-03-25T13:24:21.100Z,1015.7
2019-03-25T13:25:22.722Z,1016.0
2019-03-25T13:26:24.430Z,1016.2
2019-03-25T13:27:25.971Z,1016.2
2019-03-25T13:28:27.442Z,1016.0
2019-03-25T13:29:29.139Z,1016.0
2019-03-25T13:30:30.823Z,1015.7
2019-03-25T13:31:32.332Z,1015.7
2019-03-25T13:32:34.104Z,1015.5
2019-03-25T13:33:36.100Z,1015.5
2019-03-25T13:34:37.790Z,1015.4
2019-03-25T13:35:39.416Z,1015.4
2019-03-25T13:36:40.954Z,1015.4
2019-03-25T13:37:42.809Z,1015.4
2019-03-25T13:38:44.351Z,1015.4
2019-03-25T13:39:46.058Z,1015.5
2019-03-25T13:40:47.602Z,1015.5
2019-03-25T13:41:49.285Z,1015.4
2019-03-25T13:42:50.819Z,1015.3
2019-03-25T13:43:52.661Z,1015.3
2019-03-25T13:44:55.627Z,1015.3
2019-03-25T13:46:05.076Z,1015.3
2019-03-25T13:46:57.572Z,1015.5
2019-03-25T13:47:59.427Z,1015.4
2019-03-25T13:49:00.934Z,1015.4
2019-03-25T13:50:02.468Z,1015.5
2019-03-25T13:51:04.283Z,1015.5
2019-03-25T13:52:05.856Z,1015.5
2019-03-25T13:53:07.306Z,1015.5
2019-03-25T13:54:09.007Z,1015.6
2019-03-25T13:55:10.525Z,1015.5
2019-03-25T13:56:12.056Z,1015.6
2019-03-25T13:57:13.798Z,1015.5
2019-03-25T13:58:15.437Z,1015.6
2019-03-25T13:59:17.007Z,1015.7
2019-03-25T14:00:18.795Z,1015.7
2019-03-25T14:01:20.337Z,1015.6
2019-03-25T14:02:24.256Z,1015.4
2019-03-25T14:03:23.729Z,1015.4
2019-03-25T14:04:25.374Z,1015.5
2019-03-25T14:05:27.160Z,1015.6
2019-03-25T14:06:28.697Z,1015.4
2019-03-25T14:07:30.223Z,1015.5
2019-03-25T14:08:32.052Z,1015.4
2019-03-25T14:09:33.600Z,1015.5
2019-03-25T14:10:35.322Z,1015.6
2019-03-25T14:11:36.890Z,1015.5
2019-03-25T14:12:38.650Z,1015.5
2019-03-25T14:13:48.651Z,1015.3
2019-03-25T14:14:41.710Z,1015.2
2019-03-25T14:15:43.442Z,1015.3
2019-03-25T14:16:45.037Z,1015.3
2019-03-25T14:17:46.453Z,1015.4
2019-03-25T14:18:48.175Z,1015.4
2019-03-25T14:19:49.600Z,1015.2
2019-03-25T14:20:51.419Z,1015.1
2019-03-25T14:21:52.997Z,1015.2
2019-03-25T14:22:54.700Z,1015.2
2019-03-25T14:23:56.189Z,1015.3
2019-03-25T14:24:58.044Z,1015.3
2019-03-25T14:25:59.530Z,1015.4
2019-03-25T14:27:01.261Z,1015.4
2019-03-25T14:28:02.839Z,1015.5
2019-03-25T14:29:04.585Z,1015.4
2019-03-25T14:30:13.915Z,1015.4
2019-03-25T14:31:07.829Z,1015.3
2019-03-25T14:32:09.355Z,1015.3
2019-03-25T14:33:11.019Z,1015.3
2019-03-25T14:34:14.407Z,1015.2
2019-03-25T14:35:14.143Z,1015.3
2019-03-25T14:36:15.915Z,1015.3
2019-03-25T14:37:17.448Z,1015.3
2019-03-25T14:38:19.109Z,1015.3
2019-03-25T14:39:20.856Z,1015.4
2019-03-25T14:40:22.430Z,1015.4
2019-03-25T14:41:24.153Z,1015.4
2019-03-25T14:42:25.653Z,1015.3
2019-03-25T14:43:27.452Z,1015.3
2019-03-25T14:44:29.059Z,1015.4
2019-03-25T14:45:30.640Z,1015.4
2019-03-25T14:46:32.405Z,1015.6
2019-03-25T14:47:33.947Z,1015.6
2019-03-25T14:48:35.524Z,1015.7
2019-03-25T14:49:37.260Z,1015.9
2019-03-25T14:50:38.780Z,1015.9
2019-03-25T14:51:40.418Z,1015.8
2019-03-25T14:52:42.191Z,1015.9
2019-03-25T14:53:45.287Z,1015.9
2019-03-25T14:54:45.280Z,1015.9
2019-03-25T14:55:47.168Z,1016.0
2019-03-25T14:56:48.688Z,1016.1
2019-03-25T14:57:50.311Z,1016.1
2019-03-25T14:58:52.096Z,1016.2
2019-03-25T14:59:53.573Z,1016.2
2019-03-25T15:00:55.108Z,1016.2
2019-03-25T15:01:56.791Z,1016.2
2019-03-25T15:02:58.338Z,1016.3
2019-03-25T15:03:59.850Z,1016.4
2019-03-25T15:05:01.501Z,1016.2
2019-03-25T15:06:03.101Z,1016.3
2019-03-25T15:07:04.644Z,1016.2
2019-03-25T15:08:06.510Z,1016.2
2019-03-25T15:09:08.091Z,1016.2
2019-03-25T15:10:09.590Z,1016.2
2019-03-25T15:11:11.444Z,1016.1
2019-03-25T15:12:13.040Z,1016.1
2019-03-25T15:13:14.759Z,1016.1
2019-03-25T15:14:16.303Z,1016.1
2019-03-25T15:15:17.992Z,1016.1
2019-03-25T15:16:19.565Z,1016.1
2019-03-25T15:17:21.251Z,1016.2
2019-03-25T15:18:22.751Z,1016.1
2019-03-25T15:19:24.598Z,1016.3
2019-03-25T15:20:26.115Z,1016.2
2019-03-25T15:21:27.824Z,1016.2
2019-03-25T15:22:29.360Z,1016.3
2019-03-25T15:23:31.129Z,1016.3
2019-03-25T15:24:32.714Z,1016.2
2019-03-25T15:25:34.430Z,1016.2
2019-03-25T15:26:36.031Z,1016.3
2019-03-25T15:27:37.762Z,1016.4
2019-03-25T15:28:39.408Z,1016.4
2019-03-25T15:29:41.191Z,1016.4
2019-03-25T15:30:42.825Z,1016.5
2019-03-25T15:31:44.544Z,1016.4
2019-03-25T15:32:46.153Z,1016.5
2019-03-25T15:33:47.800Z,1016.6
2019-03-25T15:34:49.321Z,1016.6
2019-03-25T15:35:51.107Z,1016.6
2019-03-25T15:36:52.704Z,1016.6
2019-03-25T15:37:54.385Z,1016.6
2019-03-25T15:38:56.025Z,1016.6
2019-03-25T15:39:57.554Z,1016.7
2019-03-25T15:40:59.306Z,1016.6
2019-03-25T15:42:00.822Z,1016.6
2019-03-25T15:43:28.692Z,1016.6
2019-03-25T15:44:30.481Z,1016.6
2019-03-25T15:45:33.944Z,1016.7
2019-03-25T15:46:35.479Z,1016.7
2019-03-25T15:47:37.552Z,1016.6
2019-03-25T15:48:38.951Z,1016.6
2019-03-25T15:49:40.457Z,1016.7
2019-03-25T15:50:42.210Z,1016.7
2019-03-25T15:51:43.950Z,1016.6
2019-03-25T15:52:45.215Z,1016.6
2019-03-25T15:53:46.974Z,1016.7
2019-03-25T15:54:48.484Z,1016.7
2019-03-25T15:55:49.997Z,1016.7
2019-03-25T15:56:51.611Z,1016.6
2019-03-25T15:57:53.225Z,1016.7
2019-03-25T15:58:54.917Z,1016.8
2019-03-25T15:59:56.537Z,1016.8
2019-03-25T16:00:58.273Z,1016.8
2019-03-25T16:01:59.799Z,1016.9
2019-03-25T16:03:01.491Z,1016.9
2019-03-25T16:04:03.041Z,1016.9
2019-03-25T16:05:04.780Z,1016.9
2019-03-25T16:06:06.293Z,1017.1
2019-03-25T16:07:08.109Z,1017.0
2019-03-25T16:08:09.670Z,1017.0
2019-03-25T16:09:11.300Z,1017.0
2019-03-25T16:10:12.842Z,1017.0
2019-03-25T16:11:14.703Z,1017.0
2019-03-25T16:12:16.244Z,1017.0
2019-03-25T16:13:18.028Z,1017.0
2019-03-25T16:14:19.457Z,1017.0
2019-03-25T16:15:20.953Z,1017.0
2019-03-25T16:16:22.700Z,1017.0
2019-03-25T16:17:24.261Z,1017.0
2019-03-25T16:18:25.865Z,1017.0
2019-03-25T16:19:27.720Z,1017.1
2019-03-25T16:20:29.225Z,1017.1
2019-03-25T16:21:30.816Z,1017.1
2019-03-25T16:22:32.696Z,1017.1
2019-03-25T16:23:34.356Z,1017.2
2019-03-25T16:24:36.067Z,1017.3
2019-03-25T16:25:37.668Z,1017.2
2019-03-25T16:26:39.289Z,1017.3
2019-03-25T16:27:40.819Z,1017.3
2019-03-25T16:28:42.621Z,1017.3
2019-03-25T16:29:44.147Z,1017.4
2019-03-25T16:30:45.952Z,1017.3
2019-03-25T16:31:47.561Z,1017.3
2019-03-25T16:32:49.087Z,1017.4
2019-03-25T16:33:50.743Z,1017.4
2019-03-25T16:34:52.290Z,1017.4
2019-03-25T16:35:53.766Z,1017.4
2019-03-25T16:36:55.642Z,1017.4
2019-03-25T16:37:57.208Z,1017.4
2019-03-25T16:38:58.926Z,1017.4
2019-03-25T16:40:00.632Z,1017.4
2019-03-25T16:41:02.373Z,1017.5
2019-03-25T16:42:03.908Z,1017.5
2019-03-25T16:43:05.748Z,1017.5
2019-03-25T16:44:07.287Z,1017.5
2019-03-25T16:45:08.957Z,1017.6
2019-03-25T16:46:10.610Z,1017.6
2019-03-25T16:47:12.269Z,1017.6
2019-03-25T16:48:13.802Z,1017.6
2019-03-25T16:49:15.641Z,1017.7
2019-03-25T16:50:17.189Z,1017.7
2019-03-25T16:51:18.925Z,1017.7
2019-03-25T16:52:20.454Z,1017.8
2019-03-25T16:53:22.011Z,1017.8
2019-03-25T16:54:23.526Z,1017.8
2019-03-25T16:55:25.252Z,1017.9
2019-03-25T16:56:26.802Z,1017.8
2019-03-25T16:57:28.364Z,1017.9
2019-03-25T16:58:30.145Z,1017.9
2019-03-25T16:59:31.823Z,1017.9
2019-03-25T17:00:33.496Z,1017.9
2019-03-25T17:01:35.328Z,1017.9
2019-03-25T17:02:37.019Z,1018.0
2019-03-25T17:03:38.753Z,1018.0
2019-03-25T17:04:40.447Z,1018.0
2019-03-25T17:05:42.527Z,1018.0
2019-03-25T17:06:43.736Z,1018.0
2019-03-25T17:07:45.422Z,1018.1
2019-03-25T17:08:47.380Z,1018.1
2019-03-25T17:09:49.011Z,1018.1
2019-03-25T17:10:50.526Z,1018.1
2019-03-25T17:11:52.475Z,1018.2
2019-03-25T17:12:54.022Z,1018.2
2019-03-25T17:13:55.972Z,1018.3
2019-03-25T17:14:57.648Z,1018.4
2019-03-25T17:15:59.438Z,1018.4
2019-03-25T17:17:00.985Z,1018.4
2019-03-25T17:18:02.553Z,1018.4
2019-03-25T17:19:04.482Z,1018.5
2019-03-25T17:20:06.070Z,1018.5
2019-03-25T17:21:07.756Z,1018.5
2019-03-25T17:22:09.468Z,1018.5
2019-03-25T17:23:10.994Z,1018.6
2019-03-25T17:24:14.214Z,1018.4
2019-03-25T17:25:14.531Z,1018.5
2019-03-25T17:26:16.230Z,1018.5
2019-03-25T17:27:17.901Z,1018.5
2019-03-25T17:28:19.844Z,1018.5
2019-03-25T17:29:21.353Z,1018.6
2019-03-25T17:30:23.016Z,1018.6
2019-03-25T17:31:24.738Z,1018.6
2019-03-25T17:32:26.601Z,1018.6
2019-03-25T17:33:28.311Z,1018.6
2019-03-25T17:34:30.158Z,1018.6
2019-03-25T17:35:31.806Z,1018.6
2019-03-25T17:36:33.614Z,1018.7
2019-03-25T17:37:35.244Z,1018.6
2019-03-25T17:38:37.039Z,1018.7
2019-03-25T17:39:38.545Z,1018.7
2019-03-25T17:40:40.409Z,1018.7
2019-03-25T17:41:42.098Z,1018.8
2019-03-25T17:42:43.677Z,1018.8
2019-03-25T17:43:45.566Z,1018.7
2019-03-25T17:44:47.112Z,1018.8
2019-03-25T17:45:48.795Z,1018.8
2019-03-25T17:46:50.630Z,1018.8
2019-03-25T17:47:52.230Z,1018.8
2019-03-25T17:48:54.097Z,1018.9
2019-03-25T17:49:55.717Z,1019.0
2019-03-25T17:50:57.424Z,1019.0
2019-03-25T17:51:59.089Z,1019.0
2019-03-25T17:53:00.694Z,1019.0
2019-03-25T17:54:02.581Z,1019.0
2019-03-25T17:55:04.136Z,1019.1
2019-03-25T17:56:06.183Z,1019.0
2019-03-25T17:57:07.861Z,1019.1
2019-03-25T17:58:09.369Z,1019.2
2019-03-25T17:59:11.056Z,1019.2
2019-03-25T18:00:12.687Z,1019.2
2019-03-25T18:01:14.476Z,1019.2
2019-03-25T18:02:16.159Z,1019.3
2019-03-25T18:03:17.816Z,1019.3
2019-03-25T18:04:19.713Z,1019.3
2019-03-25T18:05:21.359Z,1019.3
2019-03-25T18:06:22.903Z,1019.4
2019-03-25T18:07:24.694Z,1019.3
2019-03-25T18:08:26.476Z,1019.4
2019-03-25T18:09:28.092Z,1019.4
2019-03-25T18:10:29.865Z,1019.4
2019-03-25T18:11:31.488Z,1019.5
2019-03-25T18:12:38.768Z,1019.5
2019-03-25T18:13:35.033Z,1019.6
2019-03-25T18:14:36.637Z,1019.5
2019-03-25T18:15:38.228Z,1019.6
2019-03-25T18:16:39.857Z,1019.6
2019-03-25T18:17:41.481Z,1019.6
2019-03-25T18:18:43.308Z,1019.6
2019-03-25T18:19:44.938Z,1019.6
2019-03-25T18:20:46.788Z,1019.6
2019-03-25T18:21:48.411Z,1019.7
2019-03-25T18:22:49.969Z,1019.7
2019-03-25T18:23:51.726Z,1019.7
2019-03-25T18:24:53.296Z,1019.7
2019-03-25T18:25:54.936Z,1019.7
2019-03-25T18:26:56.681Z,1019.7
2019-03-25T18:27:58.252Z,1019.7
2019-03-25T18:29:00.155Z,1019.8
2019-03-25T18:30:01.740Z,1019.8
2019-03-25T18:31:03.439Z,1019.8
2019-03-25T18:32:05.077Z,1019.8
2019-03-25T18:33:06.654Z,1019.8
2019-03-25T18:34:08.331Z,1019.9
2019-03-25T18:35:10.080Z,1019.8
2019-03-25T18:36:11.723Z,1019.9
2019-03-25T18:37:13.600Z,1019.8
2019-03-25T18:38:15.142Z,1019.8
2019-03-25T18:39:17.000Z,1019.9
2019-03-25T18:40:18.597Z,1019.9
2019-03-25T18:41:20.345Z,1019.9
2019-03-25T18:42:21.985Z,1020.0
2019-03-25T18:43:23.831Z,1020.0
2019-03-25T18:44:25.448Z,1020.0
2019-03-25T18:45:27.290Z,1020.0
2019-03-25T18:46:28.960Z,1020.0
2019-03-25T18:47:30.776Z,1020.0
2019-03-25T18:48:32.375Z,1020.1
2019-03-25T18:49:34.104Z,1020.2
2019-03-25T18:50:35.750Z,1020.1
2019-03-25T18:51:37.569Z,1020.2
2019-03-25T18:52:39.158Z,1020.1
2019-03-25T18:53:40.956Z,1020.2
2019-03-25T18:54:42.592Z,1020.2
2019-03-25T18:55:44.365Z,1020.2
2019-03-25T18:56:45.963Z,1020.3
2019-03-25T18:57:47.566Z,1020.2
2019-03-25T18:58:49.282Z,1020.2
2019-03-25T18:59:52.001Z,1020.2
2019-03-25T19:00:57.224Z,1020.3
2019-03-25T19:01:58.848Z,1020.2
2019-03-25T19:03:00.440Z,1020.2
2019-03-25T19:04:02.022Z,1020.3
2019-03-25T19:05:03.930Z,1020.3
2019-03-25T19:06:05.484Z,1020.3
2019-03-25T19:07:07.092Z,1020.3
2019-03-25T19:08:08.931Z,1020.4
2019-03-25T19:09:10.472Z,1020.4
2019-03-25T19:10:14.407Z,1020.4
2019-03-25T19:11:13.979Z,1020.4
2019-03-25T19:12:15.516Z,1020.4
2019-03-25T19:13:17.114Z,1020.4
2019-03-25T19:14:18.861Z,1020.4
2019-03-25T19:15:20.347Z,1020.4
2019-03-25T19:16:21.913Z,1020.5
2019-03-25T19:17:23.867Z,1020.5
2019-03-25T19:18:25.510Z,1020.5
2019-03-25T19:19:27.008Z,1020.6
2019-03-25T19:20:28.821Z,1020.6
2019-03-25T19:21:30.341Z,1020.5
2019-03-25T19:22:32.010Z,1020.6
2019-03-25T19:23:33.757Z,1020.6
2019-03-25T19:24:35.259Z,1020.6
2019-03-25T19:25:36.940Z,1020.6
2019-03-25T19:26:38.746Z,1020.7
2019-03-25T19:28:02.404Z,1020.7
2019-03-25T19:29:03.781Z,1020.7
2019-03-25T19:30:05.475Z,1020.8
2019-03-25T19:31:06.854Z,1020.8
2019-03-25T19:32:08.710Z,1020.8
2019-03-25T19:33:10.139Z,1020.9
2019-03-25T19:34:11.504Z,1020.8
2019-03-25T19:35:13.529Z,1020.8
2019-03-25T19:36:14.957Z,1020.8
2019-03-25T19:37:16.385Z,1020.8
2019-03-25T19:38:18.228Z,1020.9
2019-03-25T19:39:19.828Z,1020.9
2019-03-25T19:40:21.349Z,1020.9
2019-03-25T19:41:31.754Z,1021.0
2019-03-25T19:42:24.702Z,1021.0
2019-03-25T19:43:26.258Z,1021.0
2019-03-25T19:44:28.050Z,1021.0
2019-03-25T19:45:29.692Z,1021.0
2019-03-25T19:46:31.688Z,1020.9
2019-03-25T19:47:33.491Z,1021.0
2019-03-25T19:48:35.012Z,1020.9
2019-03-25T19:49:36.597Z,1021.0
2019-03-25T19:50:38.385Z,1021.0
2019-03-25T19:51:39.796Z,1021.0
2019-03-25T19:52:41.678Z,1021.1
2019-03-25T19:53:43.244Z,1021.1
2019-03-25T19:54:44.728Z,1021.1
2019-03-25T19:55:46.678Z,1021.2
2019-03-25T19:56:48.105Z,1021.1
2019-03-25T19:57:49.713Z,1021.2
2019-03-25T19:58:51.307Z,1021.2
2019-03-25T19:59:52.837Z,1021.2
2019-03-25T20:00:55.700Z,1021.3
2019-03-25T20:01:57.336Z,1021.3
2019-03-25T20:02:59.380Z,1021.3
2019-03-25T20:04:00.969Z,1021.3
2019-03-25T20:05:02.810Z,1021.3
2019-03-25T20:06:04.448Z,1021.4
2019-03-25T20:07:06.081Z,1021.4
2019-03-25T20:08:07.484Z,1021.3
2019-03-25T20:09:09.183Z,1021.4
2019-03-25T20:10:10.611Z,1021.3
2019-03-25T20:11:12.341Z,1021.4
2019-03-25T20:12:13.899Z,1021.4
2019-03-25T20:13:15.488Z,1021.3
2019-03-25T20:14:17.333Z,1021.4
2019-03-25T20:15:18.906Z,1021.3
2019-03-25T20:16:20.760Z,1021.3
2019-03-25T20:17:22.420Z,1021.3
2019-03-25T20:18:24.103Z,1021.4
2019-03-25T20:19:25.913Z,1021.4
2019-03-25T20:20:27.465Z,1021.4
2019-03-25T20:21:29.611Z,1021.5
2019-03-25T20:22:31.426Z,1021.5
2019-03-25T20:23:33.030Z,1021.4
2019-03-25T20:24:34.570Z,1021.5
2019-03-25T20:25:36.303Z,1021.5
2019-03-25T20:26:37.892Z,1021.4
2019-03-25T20:27:39.506Z,1021.5
2019-03-25T20:28:41.326Z,1021.6
2019-03-25T20:29:42.862Z,1021.6
2019-03-25T20:30:44.406Z,1021.6
2019-03-25T20:31:46.337Z,1021.6
2019-03-25T20:32:47.824Z,1021.7
2019-03-25T20:33:49.433Z,1021.7
2019-03-25T20:34:51.139Z,1021.7
2019-03-25T20:35:52.693Z,1021.7
2019-03-25T20:36:54.424Z,1021.7
2019-03-25T20:37:56.225Z,1021.8
2019-03-25T20:38:57.563Z,1021.8
2019-03-25T20:39:59.111Z,1021.8
2019-03-25T20:41:00.847Z,1021.8
2019-03-25T20:42:02.475Z,1021.8
2019-03-25T20:43:04.234Z,1021.8
2019-03-25T20:44:05.903Z,1021.8
2019-03-25T20:45:07.623Z,1021.7
2019-03-25T20:46:09.145Z,1021.8
2019-03-25T20:47:10.915Z,1021.8
2019-03-25T20:48:12.424Z,1021.8
2019-03-25T20:49:14.199Z,1021.9
2019-03-25T20:50:15.783Z,1021.8
2019-03-25T20:51:17.411Z,1021.8
2019-03-25T20:52:19.081Z,1021.8
2019-03-25T20:53:20.737Z,1021.9
2019-03-25T20:54:22.386Z,1021.9
2019-03-25T20:55:23.869Z,1022.0
2019-03-25T20:56:25.680Z,1021.9
2019-03-25T20:57:27.211Z,1022.0
2019-03-25T20:58:28.813Z,1022.0
2019-03-25T20:59:30.625Z,1022.0
2019-03-25T21:00:32.247Z,1022.0
2019-03-25T21:01:33.755Z,1022.1
2019-03-25T21:02:44.378Z,1022.1
2019-03-25T21:03:36.997Z,1022.1
2019-03-25T21:04:38.510Z,1022.2
2019-03-25T21:05:40.295Z,1022.1
2019-03-25T21:06:41.765Z,1022.2
2019-03-25T21:07:43.679Z,1022.2
2019-03-25T21:08:45.119Z,1022.2
2019-03-25T21:09:46.815Z,1022.2
2019-03-25T21:10:48.369Z,1022.2
2019-03-25T21:11:50.102Z,1022.2
2019-03-25T21:12:51.640Z,1022.2
2019-03-25T21:13:53.404Z,1022.3
2019-03-25T21:14:54.826Z,1022.2
2019-03-25T21:15:56.369Z,1022.3
2019-03-25T21:16:58.101Z,1022.3
2019-03-25T21:17:59.657Z,1022.2
2019-03-25T21:19:01.256Z,1022.2
2019-03-25T21:20:02.822Z,1022.3
2019-03-25T21:21:04.391Z,1022.3
2019-03-25T21:22:05.944Z,1022.3
2019-03-25T21:23:07.503Z,1022.4
2019-03-25T21:24:09.015Z,1022.3
2019-03-25T21:25:10.577Z,1022.4
2019-03-25T21:26:12.361Z,1022.4
2019-03-25T21:27:13.935Z,1022.5
2019-03-25T21:28:15.663Z,1022.4
2019-03-25T21:29:17.254Z,1022.5
2019-03-25T21:30:18.819Z,1022.5
2019-03-25T21:31:20.655Z,1022.5
2019-03-25T21:32:22.329Z,1022.5